Latest Weather Observations for Swan Island

IDT60801

Issued at 6:31 pm EST Wednesday 10 August 2022 (issued every 10 minutes, with the page automatically refreshed every 10 minutes)

About weather observations | Map of weather stations | Latest weather observations for TAS | Other Formats
Station Details ID: 092123 Name: SWAN ISLAND Lat: -40.73 Lon: 148.12 Height: 15.0 m
Data from the previous 72 hours. | See also: Recent months at Swan Island
Date/Time
EST
Temp
°C
App
Temp
°C
Dew
Point
°C
Rel
Hum
%
Delta-T
°C
Wind Press
QNH
hPa
Press
MSL
hPa
Rain since
9am
mm
Dir  Spd
km/h
Gust
km/h
Spd
kts
Gust
kts
10/06:30pm 10.5 6.0 7.0 79 1.6 NE 20 28 11 15 1025.6 1025.6 0.6
10/06:00pm 10.4 6.0 7.5 82 1.4 NE 20 22 11 12 1025.5 1025.5 0.6
10/05:30pm 10.3 5.9 7.5 83 1.3 NE 20 24 11 13 1025.3 1025.3 0.6
10/05:00pm 10.3 6.1 7.5 83 1.3 ENE 19 22 10 12 1025.7 1025.7 0.6
10/04:30pm 10.2 7.6 7.6 84 1.2 ENE 11 15 6 8 1026.0 1026.0 0.6
10/04:00pm 9.9 8.2 7.5 85 1.1 SE 6 7 3 4 1026.4 1026.4 0.6
10/03:30pm 10.4 6.8 6.7 78 1.7 ENE 15 19 8 10 1026.6 1026.6 0.0
10/03:00pm 11.2 8.9 7.3 77 1.9 ENE 9 13 5 7 1026.8 1026.8 0.0
10/02:30pm 11.3 8.3 7.6 78 1.8 ENE 13 15 7 8 1027.0 1027.0 0.0
10/02:00pm 11.2 8.2 7.5 78 1.8 ENE 13 15 7 8 1027.4 1027.4 0.0
10/01:30pm 11.2 7.0 7.3 77 1.9 ENE 19 20 10 11 1027.7 1027.7 0.0
10/01:00pm 12.5 10.0 4.7 59 3.5 ENE 7 9 4 5 1027.9 1027.9 0.0
10/12:30pm 12.7 10.2 4.9 59 3.6 ENE 7 9 4 5 1028.2 1028.2 0.0
10/12:00pm 12.6 9.3 4.8 59 3.6 E 11 13 6 7 1028.6 1028.6 0.0
10/11:30am 12.7 9.4 4.7 58 3.7 E 11 15 6 8 1029.1 1029.1 0.0
10/11:00am 12.3 8.7 4.8 60 3.4 E 13 19 7 10 1029.2 1029.2 0.0
10/10:30am 11.4 6.6 4.8 64 3.0 ESE 19 22 10 12 1029.0 1029.0 0.0
10/10:00am 10.5 6.8 6.5 76 1.9 SE 15 19 8 10 1029.1 1029.1 0.0
10/09:30am 9.8 6.4 6.0 77 1.8 SSE 13 17 7 9 1029.4 1029.4 0.0
10/09:00am 9.3 5.8 5.3 76 1.8 S 13 17 7 9 1029.8 1029.8 0.0
10/08:30am 8.8 6.3 5.0 77 1.7 S 7 11 4 6 1029.9 1029.9 0.0
10/08:00am 8.7 6.4 5.8 82 1.3 SSW 7 11 4 6 1029.8 1029.8 0.0
10/07:30am 8.7 6.0 5.8 82 1.3 SSE 9 11 5 6 1029.6 1029.6 0.0
10/07:00am 8.5 5.4 5.4 81 1.4 SSE 11 15 6 8 1029.3 1029.3 0.0
10/06:30am 8.5 5.3 4.9 78 1.6 SSE 11 17 6 9 1029.2 1029.2 0.0
10/06:00am 8.5 5.3 4.9 78 1.6 S 11 15 6 8 1029.0 1029.0 0.0
10/05:30am 8.5 4.8 4.3 75 1.8 S 13 15 7 8 1028.7 1028.7 0.0
10/05:00am 8.5 5.1 4.1 74 1.9 S 11 17 6 9 1028.6 1028.6 0.0
10/04:30am 8.2 4.7 3.3 71 2.1 S 11 17 6 9 1028.5 1028.5 0.0
10/04:00am 7.8 4.3 3.7 75 1.7 SSW 11 13 6 7 1028.5 1028.5 0.0
10/03:30am 7.4 4.0 3.8 78 1.5 S 11 15 6 8 1028.4 1028.4 0.0
10/03:00am 7.6 4.2 3.8 77 1.6 S 11 15 6 8 1028.6 1028.6 0.0
10/02:30am 8.0 5.0 4.0 76 1.7 S 9 15 5 8 1028.7 1028.7 0.0
10/02:00am 8.3 5.2 3.8 73 1.9 SSE 9 11 5 6 1028.7 1028.7 0.0
10/01:30am 7.8 5.3 3.5 74 1.8 SW 6 7 3 4 1028.9 1028.9 0.0
10/01:00am 8.0 5.3 3.8 75 1.8 SSW 7 11 4 6 1028.9 1028.9 0.0
10/12:30am 7.9 4.8 3.6 74 1.8 S 9 9 5 5 1028.9 1028.9 0.0
10/12:00am 7.1 4.5 4.1 81 1.3 SW 7 9 4 5 1028.9 1028.9 0.0
 
Date/Time
EST
Temp
°C
App
Temp
°C
Dew
Point
°C
Rel
Hum
%
Delta-T
°C
Wind Press
QNH
hPa
Press
MSL
hPa
Rain since
9am
mm
Dir  Spd
km/h
Gust
km/h
Spd
kts
Gust
kts
09/11:30pm 6.9 3.4 3.3 78 1.5 SW 11 13 6 7 1028.9 1028.9 0.0
09/11:00pm 7.5 4.0 3.4 75 1.7 SSW 11 15 6 8 1028.8 1028.8 0.0
09/10:30pm 7.5 4.0 3.4 75 1.7 SSW 11 13 6 7 1029.0 1029.0 0.0
09/10:00pm 7.3 4.3 3.9 79 1.4 NE 9 9 5 5 1029.1 1029.1 0.0
09/09:30pm 8.0 5.4 4.4 78 1.6 NE 7 9 4 5 1029.2 1029.2 0.0
09/09:00pm 7.7 5.1 4.1 78 1.5 NE 7 7 4 4 1029.2 1029.2 0.0
09/08:30pm 7.9 5.3 4.3 78 1.6 NE 7 9 4 5 1028.9 1028.9 0.0
09/08:00pm 8.1 5.4 3.8 74 1.8 NNE 7 7 4 4 1028.7 1028.7 0.0
09/07:30pm 8.5 6.0 3.8 72 2.0 NE 6 6 3 3 1028.6 1028.6 0.0
09/07:00pm 9.2 6.0 3.2 66 2.6 NE 9 11 5 6 1028.6 1028.6 0.0
09/06:30pm 9.0 6.0 1.9 61 3.0 NE 7 9 4 5 1028.4 1028.4 0.0
09/06:00pm 9.3 6.7 1.2 57 3.3 NE 4 4 2 2 1028.4 1028.4 0.0
09/05:30pm 9.4 6.9 1.8 59 3.2 NE 4 4 2 2 1028.2 1028.2 0.0
09/05:00pm 9.8 6.9 1.7 57 3.4 NE 6 7 3 4 1028.0 1028.0 0.0
09/04:30pm 10.4 7.6 2.3 57 3.4 NE 6 7 3 4 1027.8 1027.8 0.0
09/04:00pm 11.4 10.0 3.7 59 3.4 CALM 0 4 0 2 1027.8 1027.8 0.0
09/03:30pm 12.4 10.4 4.4 58 3.6 NNE 4 6 2 3 1027.5 1027.5 0.0
09/03:00pm 12.2 10.1 3.9 57 3.7 NNE 4 6 2 3 1027.2 1027.2 0.0
09/02:30pm 12.5 10.0 4.5 58 3.6 NNE 7 9 4 5 1027.2 1027.2 0.0
09/02:00pm 12.6 9.9 3.6 54 4.0 NE 7 9 4 5 1027.0 1027.0 0.0
09/01:30pm 12.4 9.7 3.6 55 3.9 ENE 7 11 4 6 1027.1 1027.1 0.0
09/01:00pm 12.4 9.9 4.9 60 3.4 NE 7 9 4 5 1027.1 1027.1 0.0
09/12:30pm 11.9 9.4 4.9 62 3.2 ENE 7 9 4 5 1027.4 1027.4 0.0
09/12:00pm 11.9 9.6 4.6 61 3.3 E 6 7 3 4 1027.7 1027.7 0.0
09/11:30am 10.8 8.3 3.8 62 3.1 SSE 6 7 3 4 1028.0 1028.0 0.0
09/11:00am 10.6 8.1 4.7 67 2.6 SSE 7 9 4 5 1028.2 1028.2 0.0
09/10:30am 10.4 7.9 4.8 68 2.5 S 7 11 4 6 1028.2 1028.2 0.0
09/10:00am 9.6 7.2 5.2 74 2.0 S 7 9 4 5 1028.1 1028.1 0.0
09/09:30am 8.0 4.7 4.8 80 1.4 S 11 17 6 9 1028.1 1028.1 0.0
09/09:00am 8.8 6.6 5.5 80 1.5 SSW 6 9 3 5 1027.8 1027.8 0.0
09/08:30am 7.3 4.4 4.8 84 1.1 SW 9 13 5 7 1027.8 1027.8 0.0
09/08:00am 5.9 3.5 4.2 89 0.7 SW 6 7 3 4 1027.6 1027.6 0.0
09/07:30am 5.5 3.0 3.8 89 0.7 SW 6 6 3 3 1027.3 1027.3 0.0
09/07:00am 5.2 2.5 3.5 89 0.7 SW 7 9 4 5 1027.1 1027.1 0.0
09/06:30am 5.7 3.2 3.9 88 0.8 SSW 6 7 3 4 1026.8 1026.8 0.0
09/06:00am 6.0 3.4 4.3 89 0.7 SW 7 9 4 5 1026.7 1026.7 0.0
09/05:30am 6.1 3.5 4.4 89 0.7 SW 7 7 4 4 1026.4 1026.4 0.0
09/05:00am 6.3 3.4 4.5 88 0.8 SW 9 11 5 6 1026.2 1026.2 0.0
09/04:30am 6.6 3.7 4.8 88 0.8 SW 9 9 5 5 1026.0 1026.0 0.0
09/04:00am 6.7 3.8 4.9 88 0.8 SW 9 11 5 6 1025.9 1025.9 0.0
09/03:30am 6.9 4.4 4.9 87 0.9 SW 7 9 4 5 1026.0 1026.0 0.0
09/03:00am 7.0 4.1 4.8 86 1.0 SW 9 9 5 5 1026.1 1026.1 0.0
09/02:30am 7.0 4.6 5.2 88 0.8 SW 7 9 4 5 1026.2 1026.2 0.0
09/02:00am 7.2 4.8 5.3 88 0.8 SW 7 9 4 5 1026.3 1026.3 0.0
09/01:30am 7.0 4.6 5.3 89 0.8 SW 7 9 4 5 1026.3 1026.3 0.0
09/01:00am 6.5 3.6 4.7 88 0.8 SW 9 9 5 5 1026.3 1026.3 0.0
09/12:30am 7.1 4.8 5.6 90 0.7 SW 7 7 4 4 1026.4 1026.4 0.0
09/12:00am 7.0 4.6 5.3 89 0.7 SW 7 7 4 4 1026.3 1026.3 0.0
 
Date/Time
EST
Temp
°C
App
Temp
°C
Dew
Point
°C
Rel
Hum
%
Delta-T
°C
Wind Press
QNH
hPa
Press
MSL
hPa
Rain since
9am
mm
Dir  Spd
km/h
Gust
km/h
Spd
kts
Gust
kts
08/11:30pm 7.0 4.6 5.3 89 0.8 SW 7 9 4 5 1026.4 1026.4 0.0
08/11:00pm 7.2 4.4 5.3 88 0.8 SW 9 11 5 6 1026.4 1026.4 0.0
08/10:30pm 7.3 4.6 5.4 88 0.8 SW 9 11 5 6 1026.5 1026.5 0.0
08/10:00pm 7.5 4.7 5.1 85 1.1 SW 9 9 5 5 1026.3 1026.3 0.0
08/09:30pm 7.7 5.2 4.8 82 1.3 SW 7 7 4 4 1026.1 1026.1 0.0
08/09:00pm 7.9 5.6 4.7 80 1.4 SW 6 6 3 3 1026.0 1026.0 0.0
08/08:30pm 7.8 5.6 5.3 84 1.1 SW 6 7 3 4 1026.1 1026.1 0.0
08/08:00pm 8.4 6.1 5.9 84 1.1 SSW 7 9 4 5 1026.1 1026.1 0.0
08/07:30pm 8.9 7.7 4.7 75 1.9 CALM 0 0 0 0 1026.0 1026.0 0.0
08/07:00pm 9.0 7.9 5.2 77 1.7 CALM 0 0 0 0 1025.9 1025.9 0.0
08/06:30pm 7.8 5.5 4.7 81 1.4 SW 6 7 3 4 1025.7 1025.7 0.0
08/06:00pm 8.9 7.6 4.3 73 2.0 CALM 0 2 0 1 1025.4 1025.4 0.0
08/05:30pm 9.2 7.6 4.4 72 2.1 E 2 6 1 3 1025.2 1025.2 0.0
08/05:00pm 10.1 7.7 5.1 71 2.2 E 7 7 4 4 1024.9 1024.9 0.0
08/04:30pm 10.5 8.1 5.3 70 2.4 ESE 7 9 4 5 1024.7 1024.7 0.0
08/04:00pm 11.2 8.6 5.9 70 2.4 E 9 11 5 6 1024.8 1024.8 0.0
08/03:30pm 11.6 9.0 6.1 69 2.6 E 9 11 5 6 1024.7 1024.7 0.0
08/03:00pm 11.8 9.3 6.5 70 2.5 ESE 9 11 5 6 1024.8 1024.8 0.0
08/02:30pm 11.7 9.1 6.0 68 2.7 ESE 9 13 5 7 1024.6 1024.6 0.0
08/02:00pm 11.4 8.7 5.5 67 2.7 ESE 9 11 5 6 1024.7 1024.7 0.0
08/01:30pm 11.5 8.8 5.8 68 2.7 ESE 9 13 5 7 1024.8 1024.8 0.0
08/01:00pm 11.6 9.3 5.7 67 2.7 ESE 7 11 4 6 1025.0 1025.0 0.0
08/12:30pm 12.1 9.6 6.4 68 2.7 ESE 9 11 5 6 1025.2 1025.2 0.0
08/12:00pm 11.4 8.4 6.1 70 2.5 ESE 11 13 6 7 1025.4 1025.4 0.0
08/11:30am 11.2 8.1 5.7 69 2.5 SE 11 13 6 7 1025.6 1025.6 0.0
08/11:00am 11.4 8.0 6.1 70 2.5 SE 13 17 7 9 1025.7 1025.7 0.0
08/10:30am 11.0 7.6 6.0 71 2.3 SE 13 19 7 10 1025.8 1025.8 0.0
08/10:00am 10.5 6.6 5.5 71 2.3 SSE 15 20 8 11 1025.7 1025.7 0.0
08/09:30am 9.8 6.8 6.0 77 1.8 SSE 11 13 6 7 1025.8 1025.8 0.0
08/09:00am 9.0 5.9 5.7 80 1.5 S 11 13 6 7 1025.8 1025.8 0.0
08/08:30am 7.9 3.9 4.8 81 1.4 SSE 15 19 8 10 1025.6 1025.6 0.0
08/08:00am 7.6 3.6 4.7 82 1.3 SSE 15 20 8 11 1025.3 1025.3 0.0
08/07:30am 7.1 2.6 4.4 83 1.2 SSE 17 20 9 11 1025.2 1025.2 0.0
08/07:00am 7.0 2.9 4.3 83 1.2 S 15 20 8 11 1025.1 1025.1 0.0
08/06:30am 6.9 2.8 4.6 85 1.0 S 15 20 8 11 1024.7 1024.7 0.0
08/06:00am 7.0 2.6 4.5 84 1.1 SSE 17 20 9 11 1024.5 1024.5 0.0
08/05:30am 6.7 3.0 4.4 85 1.0 S 13 19 7 10 1024.4 1024.4 0.0
08/05:00am 7.0 3.3 4.7 85 1.0 S 13 17 7 9 1024.2 1024.2 0.0
08/04:30am 7.3 3.3 5.0 85 1.0 SSE 15 20 8 11 1023.9 1023.9 0.0
08/04:00am 7.1 3.1 4.8 85 1.0 S 15 19 8 10 1023.8 1023.8 0.0
08/03:30am 7.2 3.6 5.0 86 1.0 S 13 17 7 9 1023.7 1023.7 0.0
08/03:00am 7.0 2.6 4.5 84 1.1 S 17 20 9 11 1023.8 1023.8 0.0
08/02:30am 7.2 2.8 4.5 83 1.2 S 17 20 9 11 1023.9 1023.9 0.0
08/02:00am 7.3 3.2 4.4 82 1.3 S 15 19 8 10 1023.9 1023.9 0.0
08/01:30am 7.3 2.4 4.3 81 1.3 S 19 22 10 12 1023.9 1023.9 0.0
08/01:00am 7.4 3.7 4.7 83 1.2 S 13 19 7 10 1023.8 1023.8 0.0
08/12:30am 7.5 2.7 4.5 81 1.3 S 19 24 10 13 1023.9 1023.9 0.0
08/12:00am 7.7 2.9 4.8 82 1.3 S 19 26 10 14 1024.0 1024.0 0.0
 
Date/Time
EST
Temp
°C
App
Temp
°C
Dew
Point
°C
Rel
Hum
%
Delta-T
°C
Wind Press
QNH
hPa
Press
MSL
hPa
Rain since
9am
mm
Dir  Spd
km/h
Gust
km/h
Spd
kts
Gust
kts
07/11:30pm 7.5 2.8 5.0 84 1.1 S 19 26 10 14 1023.9 1023.9 0.0
07/11:00pm 7.6 4.0 5.2 85 1.1 S 13 19 7 10 1023.8 1023.8 0.0
07/10:30pm 7.6 3.6 5.1 84 1.1 S 15 19 8 10 1023.7 1023.7 0.0
07/10:00pm 7.8 3.5 5.1 83 1.2 S 17 22 9 12 1023.9 1023.9 0.0
07/09:30pm 8.1 4.2 5.4 83 1.2 S 15 22 8 12 1023.7 1023.7 0.0
07/09:00pm 8.3 4.8 5.4 82 1.3 S 13 17 7 9 1023.4 1023.4 0.0
07/08:30pm 8.3 4.8 5.4 82 1.3 S 13 19 7 10 1023.2 1023.2 0.0
07/08:00pm 8.7 4.9 5.6 81 1.4 SSE 15 20 8 11 1023.1 1023.1 0.0
07/07:30pm 9.2 5.0 5.6 78 1.6 SSE 17 22 9 12 1022.7 1022.7 0.0
07/07:00pm 9.1 4.3 5.5 78 1.6 SSE 20 26 11 14 1022.4 1022.4 0.0

Other formats

Comma delimited format used in spreadsheet applications
http://www.bom.gov.au/fwo/IDT60801/IDT60801.95985.axf

JavaScript Object Notation format (JSON) in row-major order
http://www.bom.gov.au/fwo/IDT60801/IDT60801.95985.json

Data quality

Most of these data are generated automatically and are frequently updated. Quality checks on data are not normally performed. It is possible for incorrect values to appear. Refer to information at About Latest Weather Observations and please check the disclaimer before using these data.